Hlavní strana
METAR-TAF:

METAR-TAF

Letiště :

Ørsta-Volda, Norsko

zeměpisná šířka: 62-11N, zeměpisná délka: 006-04E, výška: 7 m

Aktuální stav počasí

Zpráva byla vytvořena před 6 hodinami a 0 minutami, v 21:50 UTC
Bezvětří
Teplota -4°C
Vlhkost vzduchu 93%
Tlak 994 hPa
Viditelnost 10 km a více
Oblačno až skoro zataženo ve výšce 300 ft

METAR: ENOV 152150Z 00000KT 9999 BKN003 M04/M05 Q0994 RMK WIND 2175FT 13011KT

Čas: 04:50 (03:50 UTC)


TAF: chybějící

Stav a předpovědi počasí z více než 4 000 letišť (zprávy METAR a TAF).

Červené a žluté tečky na mapě představují dostupné meteorologické stanice.

Když kurzor umístíte na tečku, zobrazí se název stanice.

Pak kliknutím zobrazíte stav a předpověď počasí.

Chcete-li změnit mapu, kliknutím na zelené tlačítko se znaménkem +mapu přiblížíte, kliknutím na zelené tlačítko se znaménkem – mapu oddálíte a kliknutím na zelené šipky přejdete na sousední mapy.


METAR-TAF: